sensor_id;sensor_type;location;lat;lon;timestamp;P1;durP1;ratioP1;P2;durP2;ratioP2
54831;SDS011;40730;53.068;6.572;2023-02-12T00:02:15;42.17;;;16.30;;
54831;SDS011;40730;53.068;6.572;2023-02-12T00:04:41;45.58;;;16.67;;
54831;SDS011;40730;53.068;6.572;2023-02-12T00:07:07;36.58;;;16.88;;
54831;SDS011;40730;53.068;6.572;2023-02-12T00:09:32;39.55;;;15.63;;
54831;SDS011;40730;53.068;6.572;2023-02-12T00:11:58;41.83;;;16.25;;
54831;SDS011;40730;53.068;6.572;2023-02-12T00:14:24;41.92;;;16.63;;
54831;SDS011;40730;53.068;6.572;2023-02-12T00:16:49;49.28;;;16.30;;
54831;SDS011;40730;53.068;6.572;2023-02-12T00:19:15;46.60;;;17.98;;
54831;SDS011;40730;53.068;6.572;2023-02-12T00:21:40;47.67;;;18.33;;
54831;SDS011;40730;53.068;6.572;2023-02-12T00:24:06;57.58;;;19.02;;
54831;SDS011;40730;53.068;6.572;2023-02-12T00:26:32;54.90;;;18.83;;
54831;SDS011;40730;53.068;6.572;2023-02-12T00:28:57;53.10;;;18.67;;
54831;SDS011;40730;53.068;6.572;2023-02-12T00:31:25;56.42;;;19.42;;
54831;SDS011;40730;53.068;6.572;2023-02-12T00:33:52;57.33;;;20.15;;
54831;SDS011;40730;53.068;6.572;2023-02-12T00:36:19;52.72;;;19.10;;
54831;SDS011;40730;53.068;6.572;2023-02-12T00:38:46;65.60;;;19.30;;
54831;SDS011;40730;53.068;6.572;2023-02-12T00:41:13;65.05;;;18.83;;
54831;SDS011;40730;53.068;6.572;2023-02-12T00:43:39;64.10;;;18.63;;
54831;SDS011;40730;53.068;6.572;2023-02-12T00:46:05;59.45;;;19.80;;
54831;SDS011;40730;53.068;6.572;2023-02-12T00:48:31;55.72;;;19.77;;
54831;SDS011;40730;53.068;6.572;2023-02-12T00:50:57;59.25;;;19.88;;
54831;SDS011;40730;53.068;6.572;2023-02-12T00:53:23;52.22;;;19.63;;
54831;SDS011;40730;53.068;6.572;2023-02-12T00:55:49;57.38;;;20.10;;
54831;SDS011;40730;53.068;6.572;2023-02-12T00:58:14;62.00;;;20.08;;
54831;SDS011;40730;53.068;6.572;2023-02-12T01:00:43;69.05;;;19.77;;
54831;SDS011;40730;53.068;6.572;2023-02-12T01:03:08;56.25;;;18.60;;
54831;SDS011;40730;53.068;6.572;2023-02-12T01:05:34;63.45;;;19.15;;
54831;SDS011;40730;53.068;6.572;2023-02-12T01:08:01;66.72;;;19.88;;
54831;SDS011;40730;53.068;6.572;2023-02-12T01:10:27;70.28;;;20.48;;
54831;SDS011;40730;53.068;6.572;2023-02-12T01:12:53;56.30;;;19.40;;
54831;SDS011;40730;53.068;6.572;2023-02-12T01:15:19;57.00;;;20.50;;
54831;SDS011;40730;53.068;6.572;2023-02-12T01:17:46;62.03;;;19.75;;
54831;SDS011;40730;53.068;6.572;2023-02-12T01:20:13;71.40;;;20.02;;
54831;SDS011;40730;53.068;6.572;2023-02-12T01:22:41;70.93;;;21.00;;
54831;SDS011;40730;53.068;6.572;2023-02-12T01:25:08;72.25;;;21.13;;
54831;SDS011;40730;53.068;6.572;2023-02-12T01:27:34;70.35;;;21.02;;
54831;SDS011;40730;53.068;6.572;2023-02-12T01:30:00;78.35;;;22.90;;
54831;SDS011;40730;53.068;6.572;2023-02-12T01:32:26;96.47;;;25.30;;
54831;SDS011;40730;53.068;6.572;2023-02-12T01:34:52;75.60;;;22.50;;
54831;SDS011;40730;53.068;6.572;2023-02-12T01:37:18;71.65;;;22.55;;
54831;SDS011;40730;53.068;6.572;2023-02-12T01:39:43;89.90;;;23.42;;
54831;SDS011;40730;53.068;6.572;2023-02-12T01:42:11;90.85;;;25.05;;
54831;SDS011;40730;53.068;6.572;2023-02-12T01:44:38;89.13;;;23.77;;
54831;SDS011;40730;53.068;6.572;2023-02-12T01:47:27;80.15;;;22.90;;
54831;SDS011;40730;53.068;6.572;2023-02-12T01:49:53;91.28;;;23.58;;
54831;SDS011;40730;53.068;6.572;2023-02-12T01:52:23;75.65;;;23.05;;
54831;SDS011;40730;53.068;6.572;2023-02-12T01:54:52;76.75;;;23.52;;
54831;SDS011;40730;53.068;6.572;2023-02-12T01:57:20;92.10;;;25.60;;
54831;SDS011;40730;53.068;6.572;2023-02-12T01:59:47;91.63;;;25.90;;
54831;SDS011;40730;53.068;6.572;2023-02-12T02:02:15;96.82;;;26.75;;
54831;SDS011;40730;53.068;6.572;2023-02-12T02:04:49;91.00;;;25.83;;
54831;SDS011;40730;53.068;6.572;2023-02-12T02:07:19;85.57;;;26.73;;
54831;SDS011;40730;53.068;6.572;2023-02-12T02:09:45;105.70;;;29.17;;
54831;SDS011;40730;53.068;6.572;2023-02-12T02:12:11;102.43;;;28.30;;
54831;SDS011;40730;53.068;6.572;2023-02-12T02:14:55;91.10;;;26.10;;
54831;SDS011;40730;53.068;6.572;2023-02-12T02:20:20;110.53;;;29.02;;
54831;SDS011;40730;53.068;6.572;2023-02-12T02:36:57;128.48;;;32.00;;
54831;SDS011;40730;53.068;6.572;2023-02-12T02:39:49;122.57;;;31.17;;
54831;SDS011;40730;53.068;6.572;2023-02-12T02:42:53;127.68;;;31.50;;
54831;SDS011;40730;53.068;6.572;2023-02-12T02:48:16;112.15;;;30.65;;
54831;SDS011;40730;53.068;6.572;2023-02-12T02:50:47;123.97;;;31.65;;
54831;SDS011;40730;53.068;6.572;2023-02-12T02:53:19;126.40;;;31.80;;
54831;SDS011;40730;53.068;6.572;2023-02-12T02:55:52;118.40;;;32.33;;
54831;SDS011;40730;53.068;6.572;2023-02-12T02:59:06;126.05;;;32.25;;
54831;SDS011;40730;53.068;6.572;2023-02-12T03:01:10;140.63;;;32.58;;
54831;SDS011;40730;53.068;6.572;2023-02-12T03:09:12;137.73;;;33.40;;
54831;SDS011;40730;53.068;6.572;2023-02-12T03:12:13;115.25;;;30.73;;
54831;SDS011;40730;53.068;6.572;2023-02-12T03:14:45;133.65;;;34.00;;
54831;SDS011;40730;53.068;6.572;2023-02-12T03:17:16;135.13;;;32.95;;
54831;SDS011;40730;53.068;6.572;2023-02-12T03:19:47;132.32;;;32.90;;
54831;SDS011;40730;53.068;6.572;2023-02-12T03:22:20;154.65;;;34.15;;
54831;SDS011;40730;53.068;6.572;2023-02-12T03:24:53;144.35;;;33.70;;
54831;SDS011;40730;53.068;6.572;2023-02-12T03:27:28;130.75;;;32.25;;
54831;SDS011;40730;53.068;6.572;2023-02-12T03:30:01;142.40;;;32.78;;
54831;SDS011;40730;53.068;6.572;2023-02-12T03:35:12;144.02;;;32.45;;
54831;SDS011;40730;53.068;6.572;2023-02-12T03:46:21;128.32;;;31.20;;
54831;SDS011;40730;53.068;6.572;2023-02-12T03:49:03;135.40;;;32.63;;
54831;SDS011;40730;53.068;6.572;2023-02-12T03:51:38;139.07;;;32.67;;
54831;SDS011;40730;53.068;6.572;2023-02-12T03:54:06;137.90;;;33.88;;
54831;SDS011;40730;53.068;6.572;2023-02-12T03:56:38;145.40;;;32.30;;
54831;SDS011;40730;53.068;6.572;2023-02-12T03:59:13;141.35;;;31.42;;
54831;SDS011;40730;53.068;6.572;2023-02-12T04:01:38;145.05;;;31.98;;
54831;SDS011;40730;53.068;6.572;2023-02-12T04:04:05;152.57;;;34.40;;
54831;SDS011;40730;53.068;6.572;2023-02-12T04:06:32;142.68;;;32.17;;
54831;SDS011;40730;53.068;6.572;2023-02-12T04:09:00;152.57;;;32.55;;
54831;SDS011;40730;53.068;6.572;2023-02-12T04:14:09;179.00;;;34.38;;
54831;SDS011;40730;53.068;6.572;2023-02-12T04:16:43;154.82;;;33.17;;
54831;SDS011;40730;53.068;6.572;2023-02-12T04:19:11;163.00;;;33.08;;
54831;SDS011;40730;53.068;6.572;2023-02-12T04:25:32;172.32;;;33.38;;
54831;SDS011;40730;53.068;6.572;2023-02-12T04:27:59;161.38;;;31.92;;
54831;SDS011;40730;53.068;6.572;2023-02-12T04:30:34;182.18;;;34.00;;
54831;SDS011;40730;53.068;6.572;2023-02-12T04:33:12;164.48;;;30.88;;
54831;SDS011;40730;53.068;6.572;2023-02-12T04:38:27;233.65;;;32.97;;
54831;SDS011;40730;53.068;6.572;2023-02-12T04:41:05;251.63;;;36.38;;
54831;SDS011;40730;53.068;6.572;2023-02-12T04:43:32;264.48;;;35.88;;
54831;SDS011;40730;53.068;6.572;2023-02-12T04:46:00;194.55;;;31.30;;
54831;SDS011;40730;53.068;6.572;2023-02-12T04:48:26;201.45;;;33.40;;
54831;SDS011;40730;53.068;6.572;2023-02-12T04:50:52;277.60;;;34.25;;
54831;SDS011;40730;53.068;6.572;2023-02-12T04:53:18;287.83;;;34.53;;
54831;SDS011;40730;53.068;6.572;2023-02-12T04:55:43;310.70;;;34.28;;
54831;SDS011;40730;53.068;6.572;2023-02-12T04:58:09;193.13;;;30.42;;
54831;SDS011;40730;53.068;6.572;2023-02-12T05:00:35;239.60;;;33.20;;
54831;SDS011;40730;53.068;6.572;2023-02-12T05:03:01;346.65;;;38.83;;
54831;SDS011;40730;53.068;6.572;2023-02-12T05:05:27;284.73;;;33.55;;
54831;SDS011;40730;53.068;6.572;2023-02-12T05:07:52;137.90;;;26.50;;
54831;SDS011;40730;53.068;6.572;2023-02-12T05:10:18;203.82;;;28.60;;
54831;SDS011;40730;53.068;6.572;2023-02-12T05:12:44;259.95;;;34.13;;
54831;SDS011;40730;53.068;6.572;2023-02-12T05:15:09;155.40;;;29.63;;
54831;SDS011;40730;53.068;6.572;2023-02-12T05:17:35;324.83;;;39.10;;
54831;SDS011;40730;53.068;6.572;2023-02-12T05:20:02;264.25;;;36.03;;
54831;SDS011;40730;53.068;6.572;2023-02-12T05:22:28;357.42;;;41.15;;
54831;SDS011;40730;53.068;6.572;2023-02-12T05:24:54;398.98;;;42.42;;
54831;SDS011;40730;53.068;6.572;2023-02-12T05:27:19;400.20;;;41.15;;
54831;SDS011;40730;53.068;6.572;2023-02-12T05:29:45;344.77;;;38.35;;
54831;SDS011;40730;53.068;6.572;2023-02-12T05:32:11;288.02;;;35.40;;
54831;SDS011;40730;53.068;6.572;2023-02-12T05:34:36;260.15;;;32.70;;
54831;SDS011;40730;53.068;6.572;2023-02-12T05:37:02;205.90;;;31.02;;
54831;SDS011;40730;53.068;6.572;2023-02-12T05:39:27;308.33;;;37.25;;
54831;SDS011;40730;53.068;6.572;2023-02-12T05:41:53;335.55;;;35.33;;
54831;SDS011;40730;53.068;6.572;2023-02-12T05:44:19;199.95;;;28.90;;
54831;SDS011;40730;53.068;6.572;2023-02-12T05:46:44;220.95;;;32.80;;
54831;SDS011;40730;53.068;6.572;2023-02-12T05:49:10;245.65;;;32.35;;
54831;SDS011;40730;53.068;6.572;2023-02-12T05:51:36;282.08;;;33.42;;
54831;SDS011;40730;53.068;6.572;2023-02-12T05:54:04;183.52;;;29.13;;
54831;SDS011;40730;53.068;6.572;2023-02-12T05:56:34;331.52;;;36.00;;
54831;SDS011;40730;53.068;6.572;2023-02-12T05:59:05;235.82;;;31.55;;
54831;SDS011;40730;53.068;6.572;2023-02-12T06:01:39;213.18;;;32.15;;
54831;SDS011;40730;53.068;6.572;2023-02-12T06:04:07;178.27;;;30.27;;
54831;SDS011;40730;53.068;6.572;2023-02-12T06:06:37;181.75;;;29.10;;
54831;SDS011;40730;53.068;6.572;2023-02-12T06:09:06;183.77;;;26.92;;
54831;SDS011;40730;53.068;6.572;2023-02-12T06:11:32;176.20;;;28.60;;
54831;SDS011;40730;53.068;6.572;2023-02-12T06:14:00;236.93;;;30.88;;
54831;SDS011;40730;53.068;6.572;2023-02-12T06:16:27;175.52;;;26.48;;
54831;SDS011;40730;53.068;6.572;2023-02-12T06:18:53;209.63;;;29.17;;
54831;SDS011;40730;53.068;6.572;2023-02-12T06:21:20;202.50;;;28.42;;
54831;SDS011;40730;53.068;6.572;2023-02-12T06:23:47;224.02;;;28.70;;
54831;SDS011;40730;53.068;6.572;2023-02-12T06:26:14;187.57;;;28.10;;
54831;SDS011;40730;53.068;6.572;2023-02-12T06:28:40;193.05;;;28.35;;
54831;SDS011;40730;53.068;6.572;2023-02-12T06:31:15;205.68;;;29.80;;
54831;SDS011;40730;53.068;6.572;2023-02-12T06:33:43;154.35;;;26.30;;
54831;SDS011;40730;53.068;6.572;2023-02-12T06:36:09;143.32;;;27.88;;
54831;SDS011;40730;53.068;6.572;2023-02-12T06:38:34;128.73;;;26.20;;
54831;SDS011;40730;53.068;6.572;2023-02-12T06:41:01;121.43;;;25.75;;
54831;SDS011;40730;53.068;6.572;2023-02-12T06:43:27;130.18;;;26.48;;
54831;SDS011;40730;53.068;6.572;2023-02-12T06:45:52;113.93;;;24.23;;
54831;SDS011;40730;53.068;6.572;2023-02-12T06:48:18;108.40;;;27.05;;
54831;SDS011;40730;53.068;6.572;2023-02-12T06:50:43;120.82;;;25.63;;
54831;SDS011;40730;53.068;6.572;2023-02-12T06:53:09;130.55;;;25.98;;
54831;SDS011;40730;53.068;6.572;2023-02-12T06:55:34;133.90;;;27.55;;
54831;SDS011;40730;53.068;6.572;2023-02-12T06:58:00;126.15;;;28.38;;
54831;SDS011;40730;53.068;6.572;2023-02-12T07:00:26;172.93;;;32.92;;
54831;SDS011;40730;53.068;6.572;2023-02-12T07:02:52;176.23;;;34.63;;
54831;SDS011;40730;53.068;6.572;2023-02-12T07:05:21;168.15;;;31.48;;
54831;SDS011;40730;53.068;6.572;2023-02-12T07:07:47;124.88;;;28.88;;
54831;SDS011;40730;53.068;6.572;2023-02-12T07:10:13;142.55;;;31.15;;
54831;SDS011;40730;53.068;6.572;2023-02-12T07:12:39;161.15;;;32.17;;
54831;SDS011;40730;53.068;6.572;2023-02-12T07:15:05;158.23;;;32.60;;
54831;SDS011;40730;53.068;6.572;2023-02-12T07:17:31;129.73;;;29.55;;
54831;SDS011;40730;53.068;6.572;2023-02-12T07:19:56;163.18;;;34.20;;
54831;SDS011;40730;53.068;6.572;2023-02-12T07:22:22;146.50;;;31.20;;
54831;SDS011;40730;53.068;6.572;2023-02-12T07:24:47;143.68;;;31.98;;
54831;SDS011;40730;53.068;6.572;2023-02-12T07:27:13;150.95;;;29.67;;
54831;SDS011;40730;53.068;6.572;2023-02-12T07:29:39;152.02;;;30.08;;
54831;SDS011;40730;53.068;6.572;2023-02-12T07:32:05;141.73;;;30.67;;
54831;SDS011;40730;53.068;6.572;2023-02-12T07:34:31;134.45;;;28.65;;
54831;SDS011;40730;53.068;6.572;2023-02-12T07:36:57;133.50;;;29.15;;
54831;SDS011;40730;53.068;6.572;2023-02-12T07:39:22;169.75;;;34.80;;
54831;SDS011;40730;53.068;6.572;2023-02-12T07:41:48;146.65;;;32.85;;
54831;SDS011;40730;53.068;6.572;2023-02-12T07:44:13;142.40;;;31.70;;
54831;SDS011;40730;53.068;6.572;2023-02-12T07:49:07;190.75;;;36.65;;
54831;SDS011;40730;53.068;6.572;2023-02-12T07:51:36;148.90;;;32.95;;
54831;SDS011;40730;53.068;6.572;2023-02-12T07:54:02;159.10;;;32.53;;
54831;SDS011;40730;53.068;6.572;2023-02-12T07:56:30;146.40;;;31.42;;
54831;SDS011;40730;53.068;6.572;2023-02-12T07:58:59;158.27;;;31.65;;
54831;SDS011;40730;53.068;6.572;2023-02-12T08:01:33;149.50;;;29.75;;
54831;SDS011;40730;53.068;6.572;2023-02-12T08:04:08;145.57;;;30.35;;
54831;SDS011;40730;53.068;6.572;2023-02-12T08:06:38;145.20;;;31.70;;
54831;SDS011;40730;53.068;6.572;2023-02-12T08:09:06;156.38;;;32.05;;
54831;SDS011;40730;53.068;6.572;2023-02-12T08:11:34;154.70;;;32.25;;
54831;SDS011;40730;53.068;6.572;2023-02-12T08:14:00;156.38;;;32.90;;
54831;SDS011;40730;53.068;6.572;2023-02-12T08:16:27;142.60;;;30.98;;
54831;SDS011;40730;53.068;6.572;2023-02-12T08:18:54;184.93;;;35.97;;
54831;SDS011;40730;53.068;6.572;2023-02-12T08:21:21;157.45;;;33.88;;
54831;SDS011;40730;53.068;6.572;2023-02-12T08:23:48;154.95;;;34.88;;
54831;SDS011;40730;53.068;6.572;2023-02-12T08:29:06;148.70;;;33.53;;
54831;SDS011;40730;53.068;6.572;2023-02-12T08:31:34;139.55;;;33.67;;
54831;SDS011;40730;53.068;6.572;2023-02-12T08:34:05;137.57;;;34.15;;
54831;SDS011;40730;53.068;6.572;2023-02-12T08:36:36;135.75;;;32.88;;
54831;SDS011;40730;53.068;6.572;2023-02-12T08:39:03;133.65;;;31.65;;
54831;SDS011;40730;53.068;6.572;2023-02-12T08:41:30;139.98;;;33.25;;
54831;SDS011;40730;53.068;6.572;2023-02-12T08:43:57;124.72;;;31.85;;
54831;SDS011;40730;53.068;6.572;2023-02-12T08:46:25;119.10;;;29.35;;
54831;SDS011;40730;53.068;6.572;2023-02-12T08:48:52;134.90;;;33.15;;
54831;SDS011;40730;53.068;6.572;2023-02-12T08:51:20;128.20;;;33.75;;
54831;SDS011;40730;53.068;6.572;2023-02-12T08:53:50;115.68;;;30.98;;
54831;SDS011;40730;53.068;6.572;2023-02-12T08:56:18;115.53;;;32.92;;
54831;SDS011;40730;53.068;6.572;2023-02-12T08:58:43;100.18;;;29.80;;
54831;SDS011;40730;53.068;6.572;2023-02-12T09:01:11;104.75;;;33.53;;
54831;SDS011;40730;53.068;6.572;2023-02-12T09:03:45;93.93;;;28.42;;
54831;SDS011;40730;53.068;6.572;2023-02-12T09:06:11;93.65;;;28.95;;
54831;SDS011;40730;53.068;6.572;2023-02-12T09:08:38;94.25;;;30.05;;
54831;SDS011;40730;53.068;6.572;2023-02-12T09:11:05;77.93;;;28.05;;
54831;SDS011;40730;53.068;6.572;2023-02-12T09:13:32;77.95;;;27.63;;
54831;SDS011;40730;53.068;6.572;2023-02-12T09:15:59;75.38;;;28.27;;
54831;SDS011;40730;53.068;6.572;2023-02-12T09:18:26;71.38;;;28.55;;
54831;SDS011;40730;53.068;6.572;2023-02-12T09:20:52;63.60;;;26.10;;
54831;SDS011;40730;53.068;6.572;2023-02-12T09:23:18;61.53;;;25.67;;
54831;SDS011;40730;53.068;6.572;2023-02-12T09:25:44;68.22;;;25.33;;
54831;SDS011;40730;53.068;6.572;2023-02-12T09:28:11;57.72;;;24.77;;
54831;SDS011;40730;53.068;6.572;2023-02-12T09:30:38;60.38;;;24.58;;
54831;SDS011;40730;53.068;6.572;2023-02-12T09:33:04;56.30;;;26.15;;
54831;SDS011;40730;53.068;6.572;2023-02-12T09:35:32;53.35;;;23.55;;
54831;SDS011;40730;53.068;6.572;2023-02-12T09:37:59;46.58;;;23.15;;
54831;SDS011;40730;53.068;6.572;2023-02-12T09:40:30;49.00;;;23.85;;
54831;SDS011;40730;53.068;6.572;2023-02-12T09:45:40;53.70;;;23.10;;
54831;SDS011;40730;53.068;6.572;2023-02-12T09:51:08;48.10;;;22.30;;
54831;SDS011;40730;53.068;6.572;2023-02-12T09:53:38;42.50;;;20.60;;
54831;SDS011;40730;53.068;6.572;2023-02-12T09:56:12;47.42;;;23.42;;
54831;SDS011;40730;53.068;6.572;2023-02-12T10:01:12;44.15;;;20.50;;
54831;SDS011;40730;53.068;6.572;2023-02-12T10:03:39;41.50;;;20.05;;
54831;SDS011;40730;53.068;6.572;2023-02-12T10:06:13;41.03;;;20.33;;
54831;SDS011;40730;53.068;6.572;2023-02-12T10:27:56;27.08;;;16.23;;
54831;SDS011;40730;53.068;6.572;2023-02-12T10:30:29;29.90;;;16.45;;
54831;SDS011;40730;53.068;6.572;2023-02-12T10:33:15;26.67;;;15.88;;
54831;SDS011;40730;53.068;6.572;2023-02-12T10:35:46;31.67;;;16.75;;
54831;SDS011;40730;53.068;6.572;2023-02-12T10:38:24;33.05;;;16.80;;
54831;SDS011;40730;53.068;6.572;2023-02-12T10:40:54;27.35;;;15.20;;
54831;SDS011;40730;53.068;6.572;2023-02-12T10:43:22;28.65;;;15.02;;
54831;SDS011;40730;53.068;6.572;2023-02-12T10:45:48;26.48;;;14.73;;
54831;SDS011;40730;53.068;6.572;2023-02-12T10:48:22;26.20;;;14.38;;
54831;SDS011;40730;53.068;6.572;2023-02-12T10:53:30;26.75;;;13.48;;
54831;SDS011;40730;53.068;6.572;2023-02-12T10:58:41;23.55;;;13.45;;
54831;SDS011;40730;53.068;6.572;2023-02-12T11:01:15;25.40;;;12.82;;
54831;SDS011;40730;53.068;6.572;2023-02-12T11:10:01;23.70;;;11.98;;
54831;SDS011;40730;53.068;6.572;2023-02-12T11:14:50;20.02;;;11.77;;
54831;SDS011;40730;53.068;6.572;2023-02-12T11:17:25;22.85;;;12.25;;
54831;SDS011;40730;53.068;6.572;2023-02-12T11:22:48;19.52;;;10.20;;
54831;SDS011;40730;53.068;6.572;2023-02-12T11:25:15;16.10;;;10.27;;
54831;SDS011;40730;53.068;6.572;2023-02-12T11:27:41;18.90;;;9.02;;
54831;SDS011;40730;53.068;6.572;2023-02-12T11:30:15;18.90;;;10.13;;
54831;SDS011;40730;53.068;6.572;2023-02-12T11:32:43;19.70;;;10.75;;
54831;SDS011;40730;53.068;6.572;2023-02-12T11:35:21;14.98;;;8.63;;
54831;SDS011;40730;53.068;6.572;2023-02-12T11:37:51;14.65;;;7.72;;
54831;SDS011;40730;53.068;6.572;2023-02-12T11:40:20;14.13;;;8.20;;
54831;SDS011;40730;53.068;6.572;2023-02-12T11:42:49;18.02;;;8.98;;
54831;SDS011;40730;53.068;6.572;2023-02-12T11:45:18;15.43;;;9.10;;
54831;SDS011;40730;53.068;6.572;2023-02-12T11:47:46;14.18;;;7.22;;
54831;SDS011;40730;53.068;6.572;2023-02-12T11:52:48;13.48;;;8.13;;
54831;SDS011;40730;53.068;6.572;2023-02-12T11:55:23;13.60;;;7.22;;
54831;SDS011;40730;53.068;6.572;2023-02-12T12:00:37;10.13;;;6.32;;
54831;SDS011;40730;53.068;6.572;2023-02-12T12:06:02;12.23;;;5.78;;
54831;SDS011;40730;53.068;6.572;2023-02-12T12:11:24;10.85;;;6.82;;
54831;SDS011;40730;53.068;6.572;2023-02-12T12:13:58;13.10;;;6.60;;
54831;SDS011;40730;53.068;6.572;2023-02-12T12:16:37;11.98;;;6.75;;
54831;SDS011;40730;53.068;6.572;2023-02-12T12:19:47;11.27;;;6.05;;
54831;SDS011;40730;53.068;6.572;2023-02-12T12:25:50;11.07;;;5.88;;
54831;SDS011;40730;53.068;6.572;2023-02-12T12:36:39;9.10;;;5.78;;
54831;SDS011;40730;53.068;6.572;2023-02-12T12:49:55;6.75;;;3.78;;
54831;SDS011;40730;53.068;6.572;2023-02-12T12:54:54;13.60;;;5.17;;
54831;SDS011;40730;53.068;6.572;2023-02-12T13:05:32;5.88;;;2.65;;
54831;SDS011;40730;53.068;6.572;2023-02-12T13:08:32;3.03;;;1.77;;
54831;SDS011;40730;53.068;6.572;2023-02-12T13:11:26;3.65;;;1.90;;
54831;SDS011;40730;53.068;6.572;2023-02-12T13:14:02;4.75;;;1.95;;
54831;SDS011;40730;53.068;6.572;2023-02-12T13:19:57;5.60;;;2.00;;
54831;SDS011;40730;53.068;6.572;2023-02-12T13:22:34;8.90;;;1.20;;
54831;SDS011;40730;53.068;6.572;2023-02-12T13:25:22;2.38;;;0.65;;
54831;SDS011;40730;53.068;6.572;2023-02-12T13:27:53;1.05;;;0.38;;
54831;SDS011;40730;53.068;6.572;2023-02-12T13:33:41;3.22;;;0.20;;
54831;SDS011;40730;53.068;6.572;2023-02-12T13:35:54;1.70;;;0.20;;
54831;SDS011;40730;53.068;6.572;2023-02-12T13:38:24;0.50;;;0.28;;
54831;SDS011;40730;53.068;6.572;2023-02-12T13:41:04;1.40;;;0.22;;
54831;SDS011;40730;53.068;6.572;2023-02-12T13:43:35;3.20;;;0.57;;
54831;SDS011;40730;53.068;6.572;2023-02-12T13:48:49;3.13;;;0.90;;
54831;SDS011;40730;53.068;6.572;2023-02-12T13:51:45;2.60;;;0.60;;
54831;SDS011;40730;53.068;6.572;2023-02-12T13:56:57;2.72;;;1.25;;
54831;SDS011;40730;53.068;6.572;2023-02-12T14:02:00;3.10;;;1.13;;
54831;SDS011;40730;53.068;6.572;2023-02-12T14:07:53;3.53;;;1.30;;
54831;SDS011;40730;53.068;6.572;2023-02-12T14:12:51;2.10;;;1.10;;
54831;SDS011;40730;53.068;6.572;2023-02-12T14:15:27;2.63;;;1.02;;
54831;SDS011;40730;53.068;6.572;2023-02-12T14:20:45;1.08;;;0.40;;
54831;SDS011;40730;53.068;6.572;2023-02-12T14:23:24;1.85;;;0.40;;
54831;SDS011;40730;53.068;6.572;2023-02-12T14:26:01;1.75;;;0.30;;
54831;SDS011;40730;53.068;6.572;2023-02-12T14:33:44;1.00;;;0.20;;
54831;SDS011;40730;53.068;6.572;2023-02-12T14:36:15;0.80;;;0.40;;
54831;SDS011;40730;53.068;6.572;2023-02-12T14:41:54;1.10;;;0.30;;
54831;SDS011;40730;53.068;6.572;2023-02-12T14:44:37;1.30;;;0.30;;
54831;SDS011;40730;53.068;6.572;2023-02-12T14:47:50;2.43;;;0.43;;
54831;SDS011;40730;53.068;6.572;2023-02-12T14:50:11;1.13;;;0.40;;
54831;SDS011;40730;53.068;6.572;2023-02-12T14:52:42;2.80;;;0.50;;
54831;SDS011;40730;53.068;6.572;2023-02-12T14:55:23;1.85;;;0.90;;
54831;SDS011;40730;53.068;6.572;2023-02-12T14:57:58;3.28;;;0.88;;
54831;SDS011;40730;53.068;6.572;2023-02-12T15:00:27;2.85;;;1.48;;
54831;SDS011;40730;53.068;6.572;2023-02-12T15:08:32;3.55;;;1.63;;
54831;SDS011;40730;53.068;6.572;2023-02-12T15:16:26;2.65;;;1.70;;
54831;SDS011;40730;53.068;6.572;2023-02-12T15:18:59;2.42;;;1.80;;
54831;SDS011;40730;53.068;6.572;2023-02-12T15:21:27;2.40;;;0.77;;
54831;SDS011;40730;53.068;6.572;2023-02-12T15:26:27;2.33;;;1.13;;
54831;SDS011;40730;53.068;6.572;2023-02-12T15:28:56;4.20;;;1.70;;
54831;SDS011;40730;53.068;6.572;2023-02-12T15:31:25;3.03;;;0.80;;
54831;SDS011;40730;53.068;6.572;2023-02-12T15:33:54;1.30;;;0.80;;
54831;SDS011;40730;53.068;6.572;2023-02-12T15:36:25;3.42;;;1.25;;
54831;SDS011;40730;53.068;6.572;2023-02-12T15:38:53;4.25;;;1.65;;
54831;SDS011;40730;53.068;6.572;2023-02-12T15:43:57;4.63;;;1.30;;
54831;SDS011;40730;53.068;6.572;2023-02-12T15:46:24;2.70;;;1.38;;
54831;SDS011;40730;53.068;6.572;2023-02-12T15:48:49;3.97;;;2.13;;
54831;SDS011;40730;53.068;6.572;2023-02-12T15:51:29;3.28;;;2.10;;
54831;SDS011;40730;53.068;6.572;2023-02-12T15:53:59;4.88;;;1.50;;
54831;SDS011;40730;53.068;6.572;2023-02-12T15:56:28;3.53;;;1.70;;
54831;SDS011;40730;53.068;6.572;2023-02-12T15:58:56;3.35;;;1.30;;
54831;SDS011;40730;53.068;6.572;2023-02-12T16:01:25;4.13;;;1.92;;
54831;SDS011;40730;53.068;6.572;2023-02-12T16:03:53;5.13;;;1.75;;
54831;SDS011;40730;53.068;6.572;2023-02-12T16:06:30;2.60;;;1.75;;
54831;SDS011;40730;53.068;6.572;2023-02-12T16:09:02;3.10;;;1.83;;
54831;SDS011;40730;53.068;6.572;2023-02-12T16:11:31;3.78;;;2.13;;
54831;SDS011;40730;53.068;6.572;2023-02-12T16:13:59;4.22;;;2.15;;
54831;SDS011;40730;53.068;6.572;2023-02-12T16:16:27;5.32;;;2.95;;
54831;SDS011;40730;53.068;6.572;2023-02-12T16:21:38;2.58;;;1.95;;
54831;SDS011;40730;53.068;6.572;2023-02-12T16:24:04;3.83;;;2.20;;
54831;SDS011;40730;53.068;6.572;2023-02-12T16:26:44;2.97;;;1.70;;
54831;SDS011;40730;53.068;6.572;2023-02-12T16:29:12;3.33;;;2.10;;
54831;SDS011;40730;53.068;6.572;2023-02-12T16:31:44;4.07;;;1.67;;
54831;SDS011;40730;53.068;6.572;2023-02-12T16:34:32;3.10;;;1.98;;
54831;SDS011;40730;53.068;6.572;2023-02-12T16:37:03;3.00;;;1.48;;
54831;SDS011;40730;53.068;6.572;2023-02-12T16:48:16;2.53;;;1.52;;
54831;SDS011;40730;53.068;6.572;2023-02-12T16:53:30;1.88;;;1.23;;
54831;SDS011;40730;53.068;6.572;2023-02-12T16:56:00;2.47;;;1.40;;
54831;SDS011;40730;53.068;6.572;2023-02-12T16:58:27;3.38;;;1.42;;
54831;SDS011;40730;53.068;6.572;2023-02-12T17:00:56;4.53;;;1.52;;
54831;SDS011;40730;53.068;6.572;2023-02-12T17:03:24;2.13;;;1.38;;
54831;SDS011;40730;53.068;6.572;2023-02-12T17:05:50;4.75;;;1.98;;
54831;SDS011;40730;53.068;6.572;2023-02-12T17:08:17;4.10;;;2.10;;
54831;SDS011;40730;53.068;6.572;2023-02-12T17:10:46;2.55;;;1.95;;
54831;SDS011;40730;53.068;6.572;2023-02-12T17:13:15;3.40;;;1.63;;
54831;SDS011;40730;53.068;6.572;2023-02-12T17:15:44;2.88;;;2.05;;
54831;SDS011;40730;53.068;6.572;2023-02-12T17:18:14;5.03;;;2.35;;
54831;SDS011;40730;53.068;6.572;2023-02-12T17:20:40;4.80;;;1.90;;
54831;SDS011;40730;53.068;6.572;2023-02-12T17:26:48;4.15;;;2.20;;
54831;SDS011;40730;53.068;6.572;2023-02-12T17:29:15;2.83;;;2.38;;
54831;SDS011;40730;53.068;6.572;2023-02-12T17:31:42;3.08;;;2.08;;
54831;SDS011;40730;53.068;6.572;2023-02-12T17:34:07;5.03;;;2.67;;
54831;SDS011;40730;53.068;6.572;2023-02-12T17:36:33;4.53;;;2.45;;
54831;SDS011;40730;53.068;6.572;2023-02-12T17:38:59;4.15;;;2.33;;
54831;SDS011;40730;53.068;6.572;2023-02-12T17:41:27;4.82;;;2.67;;
54831;SDS011;40730;53.068;6.572;2023-02-12T17:43:52;3.50;;;2.47;;
54831;SDS011;40730;53.068;6.572;2023-02-12T17:46:19;3.00;;;2.58;;
54831;SDS011;40730;53.068;6.572;2023-02-12T17:48:46;3.45;;;2.30;;
54831;SDS011;40730;53.068;6.572;2023-02-12T17:51:12;4.88;;;2.63;;
54831;SDS011;40730;53.068;6.572;2023-02-12T17:53:38;5.50;;;2.55;;
54831;SDS011;40730;53.068;6.572;2023-02-12T17:56:08;5.55;;;3.33;;
54831;SDS011;40730;53.068;6.572;2023-02-12T17:58:34;5.32;;;2.47;;
54831;SDS011;40730;53.068;6.572;2023-02-12T18:01:04;3.92;;;2.47;;
54831;SDS011;40730;53.068;6.572;2023-02-12T18:03:34;3.97;;;2.33;;